Time;durP1;ratioP1;P1;durP2;ratioP2;P2;SDS_P1;SDS_P2;PMS_P1;PMS_P2;Temp;Humidity;BMP_temperature;BMP_pressure;BME280_temperature;BME280_humidity;BME280_pressure;Samples;Min_cycle;Max_cycle;Signal;HPM_P1;HPM_P2
2022/12/04 00:01:36;;;;;;;15.13;6.47;;;15.60;99.90;;;;;;4965348;28;20132;-72
2022/12/04 00:04:03;;;;;;;25.63;7.30;;;15.70;99.90;;;;;;4974988;28;20050;-72
2022/12/04 00:06:32;;;;;;;15.43;5.90;;;15.70;99.90;;;;;;4970367;28;20047;-73
2022/12/04 00:09:00;;;;;;;14.98;5.72;;;15.80;99.90;;;;;;4982206;28;20202;-73
2022/12/04 00:11:29;;;;;;;10.82;7.32;;;15.80;99.90;;;;;;4975019;28;20055;-73
2022/12/04 00:13:58;;;;;;;15.73;7.47;;;15.80;99.90;;;;;;4979471;28;20047;-73
2022/12/04 00:16:29;;;;;;;22.30;7.30;;;15.90;99.90;;;;;;4975684;28;20148;-72
2022/12/04 00:18:57;;;;;;;15.77;7.65;;;15.90;99.90;;;;;;4976720;28;20047;-73
2022/12/04 00:21:25;;;;;;;14.13;6.50;;;15.80;99.90;;;;;;4970383;28;20461;-72
2022/12/04 00:23:53;;;;;;;12.88;6.90;;;15.70;99.90;;;;;;4986450;28;20058;-72
2022/12/04 00:26:23;;;;;;;17.23;6.22;;;15.60;99.90;;;;;;4973502;28;20227;-72
2022/12/04 00:28:51;;;;;;;13.07;6.25;;;15.60;99.90;;;;;;4982198;28;20050;-73
2022/12/04 00:31:22;;;;;;;8.45;5.63;;;15.60;99.90;;;;;;4970271;28;20058;-72
2022/12/04 00:33:50;;;;;;;9.85;5.70;;;15.60;99.90;;;;;;4977919;28;20050;-72
2022/12/04 00:36:21;;;;;;;26.77;6.28;;;15.60;99.90;;;;;;4971372;28;20047;-72
2022/12/04 00:38:48;;;;;;;10.50;6.40;;;15.60;99.90;;;;;;4961934;28;20110;-72
2022/12/04 00:41:19;;;;;;;16.58;6.63;;;15.60;99.90;;;;;;4974701;28;20049;-72
2022/12/04 00:43:46;;;;;;;17.80;6.50;;;15.70;99.90;;;;;;4975171;28;20153;-73
2022/12/04 00:46:15;;;;;;;11.48;5.22;;;15.70;99.90;;;;;;4978428;28;20101;-72
2022/12/04 00:48:43;;;;;;;14.15;6.32;;;15.70;99.90;;;;;;4973948;28;20501;-73
2022/12/04 00:51:14;;;;;;;16.92;7.68;;;15.70;99.90;;;;;;4962695;28;20440;-73
2022/12/04 00:53:42;;;;;;;13.30;5.07;;;15.70;99.90;;;;;;4976838;28;20109;-72
2022/12/04 00:56:22;;;;;;;13.70;5.78;;;15.70;99.90;;;;;;4966608;28;20070;-73
2022/12/04 00:58:58;;;;;;;16.05;6.05;;;15.60;99.90;;;;;;4985541;28;20070;-72
2022/12/04 01:01:27;;;;;;;14.77;6.25;;;15.60;99.90;;;;;;4979882;28;20504;-73
2022/12/04 01:03:55;;;;;;;11.88;5.82;;;15.70;99.90;;;;;;4995145;28;20134;-73
2022/12/04 01:06:32;;;;;;;17.45;6.13;;;15.80;99.90;;;;;;4982312;28;20089;-73
2022/12/04 01:09:02;;;;;;;15.23;6.45;;;15.80;99.90;;;;;;4975155;28;20069;-73
2022/12/04 01:11:30;;;;;;;14.00;7.13;;;15.90;99.90;;;;;;4975732;28;20046;-73
2022/12/04 01:13:58;;;;;;;20.92;8.38;;;16.00;99.90;;;;;;4979437;28;20042;-74
2022/12/04 01:16:37;;;;;;;22.17;8.77;;;15.90;99.90;;;;;;4955694;28;20381;-73
2022/12/04 01:19:08;;;;;;;15.60;6.72;;;15.90;99.90;;;;;;4980623;28;20051;-72
2022/12/04 01:21:36;;;;;;;17.63;8.23;;;15.90;99.90;;;;;;4972885;28;20383;-72
2022/12/04 01:24:05;;;;;;;29.67;10.73;;;15.90;99.90;;;;;;4979036;28;20148;-71
2022/12/04 01:26:32;;;;;;;16.95;8.10;;;15.90;99.90;;;;;;4984633;28;20058;-72
2022/12/04 01:29:00;;;;;;;23.52;7.97;;;15.90;99.90;;;;;;4975808;28;20051;-73
2022/12/04 01:31:28;;;;;;;19.63;8.93;;;15.90;99.90;;;;;;4978336;28;20084;-72
2022/12/04 01:33:55;;;;;;;13.38;7.22;;;16.00;99.90;;;;;;4981584;28;20054;-72
2022/12/04 01:36:26;;;;;;;20.13;8.70;;;16.00;99.90;;;;;;4991164;28;20042;-72
2022/12/04 01:38:54;;;;;;;17.40;7.35;;;16.00;99.90;;;;;;4983583;28;20493;-73
2022/12/04 01:41:24;;;;;;;16.52;8.35;;;16.00;99.90;;;;;;4970914;28;20058;-72
2022/12/04 01:44:14;;;;;;;17.58;7.95;;;15.90;99.90;;;;;;4970651;28;20047;-71
2022/12/04 01:46:44;;;;;;;28.48;5.82;;;15.90;99.90;;;;;;4971473;28;20055;-72
2022/12/04 01:49:24;;;;;;;3.67;1.73;;;15.80;99.90;;;;;;4980077;28;20057;-72
2022/12/04 01:51:57;;;;;;;3.08;1.70;;;14.10;99.90;;;;;;4985804;28;20054;-71
2022/12/04 01:54:29;;;;;;;8.18;2.60;;;13.30;99.90;;;;;;4968526;28;20497;-72
2022/12/04 01:57:48;;;;;;;5.10;1.73;;;12.60;99.90;;;;;;4990383;28;20042;-72
2022/12/04 02:00:23;;;;;;;3.03;1.75;;;12.40;99.90;;;;;;4932555;28;20062;-72
2022/12/04 02:06:37;;;;;;;5.60;2.40;;;11.80;99.90;;;;;;4990382;28;20504;-72
2022/12/04 02:09:04;;;;;;;6.70;1.85;;;11.80;99.90;;;;;;4987772;28;20070;-71
2022/12/04 02:11:45;;;;;;;5.45;2.67;;;11.70;99.90;;;;;;4989639;28;20093;-72
2022/12/04 02:14:53;;;;;;;13.20;2.33;;;11.70;99.90;;;;;;4989439;28;20047;-72
2022/12/04 02:17:34;;;;;;;9.63;2.80;;;11.80;99.90;;;;;;4989710;28;20400;-72
2022/12/04 02:20:13;;;;;;;9.32;2.83;;;11.80;99.90;;;;;;4975156;28;20055;-72
2022/12/04 02:23:05;;;;;;;11.27;3.70;;;11.80;99.90;;;;;;4978727;28;20046;-71
2022/12/04 02:25:53;;;;;;;9.48;3.03;;;11.80;99.90;;;;;;4989970;28;20058;-72
2022/12/04 02:29:11;;;;;;;6.30;2.50;;;11.80;99.90;;;;;;4986962;28;20068;-71
2022/12/04 02:31:50;;;;;;;11.88;2.40;;;11.80;99.90;;;;;;4963923;28;20154;-72
2022/12/04 02:34:50;;;;;;;9.90;2.17;;;11.80;99.90;;;;;;4988189;28;20097;-72
2022/12/04 02:37:26;;;;;;;7.78;2.38;;;11.90;99.90;;;;;;4969732;28;20066;-72
2022/12/04 02:40:24;;;;;;;14.93;5.07;;;11.90;99.90;;;;;;4987865;28;20745;-72
2022/12/04 02:42:59;;;;;;;7.07;1.98;;;11.80;99.90;;;;;;4982361;28;20559;-71
2022/12/04 02:45:31;;;;;;;6.63;3.17;;;11.90;99.90;;;;;;4988637;28;20353;-72
2022/12/04 02:48:02;;;;;;;6.57;2.88;;;11.90;99.90;;;;;;4972937;28;20050;-71
2022/12/04 02:50:33;;;;;;;9.18;2.83;;;11.90;99.90;;;;;;4970792;28;20097;-71
2022/12/04 02:53:41;;;;;;;8.25;2.28;;;11.90;99.90;;;;;;4970649;28;20046;-71
2022/12/04 02:56:10;;;;;;;;;;;11.90;99.90;;;;;;4928658;28;20528;-71
2022/12/04 02:58:53;;;;;;;3.47;1.80;;;11.90;99.90;;;;;;4957001;28;19925;-72
2022/12/04 03:01:27;;;;;;;5.53;2.33;;;11.90;99.90;;;;;;4988594;28;20137;-72
2022/12/04 03:04:08;;;;;;;5.53;2.63;;;11.90;99.90;;;;;;4984353;28;20457;-72
2022/12/04 03:06:41;;;;;;;9.80;3.10;;;11.90;99.90;;;;;;4989351;28;20519;-72
2022/12/04 03:09:43;;;;;;;6.47;2.35;;;11.80;99.90;;;;;;4964582;28;20091;-71
2022/12/04 03:12:23;;;;;;;9.75;3.13;;;11.80;99.90;;;;;;4954763;28;20043;-71
2022/12/04 03:15:00;;;;;;;5.97;2.33;;;11.80;99.90;;;;;;4970822;28;20039;-72
2022/12/04 03:17:35;;;;;;;8.65;2.35;;;11.70;99.90;;;;;;4969993;28;20051;-72
2022/12/04 03:20:08;;;;;;;4.82;2.20;;;11.80;99.90;;;;;;4984981;28;20583;-72
2022/12/04 03:22:47;;;;;;;6.93;2.10;;;11.80;99.90;;;;;;4968571;28;20461;-73
2022/12/04 03:25:14;;;;;;;5.32;1.98;;;11.70;99.90;;;;;;4984976;28;20161;-72
2022/12/04 03:28:00;;;;;;;4.45;2.30;;;11.70;99.90;;;;;;4970355;28;20500;-72
2022/12/04 03:30:39;;;;;;;5.00;2.30;;;11.60;99.90;;;;;;4968978;28;20580;-72
2022/12/04 03:33:15;;;;;;;5.65;2.10;;;11.60;99.90;;;;;;4970629;28;20129;-72
2022/12/04 03:35:54;;;;;;;7.72;3.28;;;11.50;99.90;;;;;;4969018;28;20164;-71
2022/12/04 03:38:40;;;;;;;6.70;2.58;;;11.60;99.90;;;;;;4960130;28;20050;-72
2022/12/04 03:41:14;;;;;;;5.55;2.63;;;11.50;99.90;;;;;;4984272;28;20042;-72
2022/12/04 03:43:56;;;;;;;5.75;2.05;;;11.50;99.90;;;;;;4968880;28;20043;-72
2022/12/04 03:46:29;;;;;;;7.95;2.30;;;11.50;99.90;;;;;;4952617;28;20130;-72
2022/12/04 03:48:56;;;;;;;6.63;3.00;;;11.50;99.90;;;;;;4970268;28;20066;-71
2022/12/04 03:51:53;;;;;;;10.02;2.50;;;11.50;99.90;;;;;;4968402;28;20564;-71
2022/12/04 03:54:28;;;;;;;5.95;2.03;;;11.50;99.90;;;;;;4969851;28;20046;-72
2022/12/04 03:57:06;;;;;;;8.00;2.35;;;11.50;99.90;;;;;;4973108;28;20047;-72
2022/12/04 03:59:48;;;;;;;4.70;2.58;;;11.50;99.90;;;;;;4987669;28;20512;-72
2022/12/04 04:02:24;;;;;;;5.32;1.90;;;11.60;99.90;;;;;;4973170;28;20901;-71
2022/12/04 04:04:56;;;;;;;6.82;2.95;;;11.50;99.90;;;;;;4969927;28;20046;-71
2022/12/04 04:07:45;;;;;;;8.15;2.03;;;11.60;99.90;;;;;;4977102;28;20054;-72
2022/12/04 04:10:21;;;;;;;6.53;2.33;;;11.60;99.90;;;;;;4988213;28;20358;-72
2022/12/04 04:24:44;;;;;;;8.00;2.58;;;11.60;99.90;;;;;;4969029;28;20050;-72
2022/12/04 04:27:12;;;;;;;9.95;2.90;;;11.50;99.90;;;;;;4969896;28;20067;-71
2022/12/04 04:29:42;;;;;;;7.93;2.97;;;11.60;99.90;;;;;;4952731;28;20189;-71
2022/12/04 04:32:19;;;;;;;6.80;2.63;;;11.60;99.90;;;;;;4968524;28;20493;-71
2022/12/04 04:35:05;;;;;;;6.95;2.63;;;11.60;99.90;;;;;;4972174;28;20051;-72
2022/12/04 04:37:33;;;;;;;8.65;2.55;;;11.60;99.90;;;;;;4963267;28;20050;-72
2022/12/04 04:40:15;;;;;;;12.25;2.72;;;11.50;99.90;;;;;;4975545;28;20060;-71
2022/12/04 04:42:53;;;;;;;9.80;5.20;;;11.50;99.90;;;;;;4973895;28;20501;-72
2022/12/04 04:45:35;;;;;;;11.30;4.07;;;11.50;99.90;;;;;;4977263;28;20077;-72
2022/12/04 04:48:19;;;;;;;10.55;3.65;;;11.40;99.90;;;;;;4973797;28;20137;-72
2022/12/04 04:50:47;;;;;;;16.55;3.65;;;11.40;99.90;;;;;;4991448;28;20177;-71
2022/12/04 04:53:20;;;;;;;7.25;3.38;;;11.40;99.90;;;;;;4973551;28;20076;-72
2022/12/04 04:55:48;;;;;;;6.95;3.47;;;11.40;99.90;;;;;;4987961;28;20042;-73
2022/12/04 04:58:18;;;;;;;14.20;4.28;;;11.30;99.90;;;;;;4991512;28;20060;-72
2022/12/04 05:00:56;;;;;;;12.55;3.72;;;11.30;99.90;;;;;;4991724;28;20046;-72
2022/12/04 05:03:25;;;;;;;13.10;2.70;;;11.30;99.90;;;;;;4981849;28;20057;-72
2022/12/04 05:05:53;;;;;;;10.48;3.50;;;11.30;99.90;;;;;;4975566;28;20034;-72
2022/12/04 05:08:21;;;;;;;5.63;3.03;;;11.30;99.90;;;;;;4991323;28;20042;-72
2022/12/04 05:10:48;;;;;;;9.85;2.72;;;11.30;99.90;;;;;;4990879;28;20512;-72
2022/12/04 05:13:17;;;;;;;5.45;2.30;;;11.20;99.90;;;;;;4958480;28;20070;-72
2022/12/04 05:15:58;;;;;;;14.07;3.30;;;11.20;99.90;;;;;;4988853;28;20113;-73
2022/12/04 05:18:26;;;;;;;6.80;2.63;;;11.30;99.90;;;;;;4981435;28;20117;-72
2022/12/04 05:20:53;;;;;;;6.50;2.88;;;11.20;99.90;;;;;;4991420;28;20047;-71
2022/12/04 05:23:21;;;;;;;9.77;3.17;;;11.20;99.90;;;;;;4978276;28;20050;-72
2022/12/04 05:25:48;;;;;;;7.05;3.45;;;11.10;99.90;;;;;;4988587;28;20062;-71
2022/12/04 05:28:16;;;;;;;9.82;4.13;;;11.00;99.90;;;;;;4974998;28;20153;-73
2022/12/04 05:30:44;;;;;;;11.98;2.38;;;11.00;99.90;;;;;;4952334;28;20414;-71
2022/12/04 05:33:11;;;;;;;10.90;2.83;;;10.90;99.90;;;;;;4980655;28;20493;-73
2022/12/04 05:35:39;;;;;;;7.70;3.25;;;10.90;99.90;;;;;;4978611;28;20058;-72
2022/12/04 05:38:06;;;;;;;5.07;2.70;;;10.90;99.90;;;;;;4977070;28;20050;-72
2022/12/04 05:40:34;;;;;;;4.20;2.40;;;10.80;99.90;;;;;;4973721;28;20064;-72
2022/12/04 05:43:01;;;;;;;5.05;3.00;;;10.80;99.90;;;;;;4968903;28;20043;-72
2022/12/04 05:45:28;;;;;;;5.07;2.78;;;10.70;99.90;;;;;;4971343;28;20051;-72
2022/12/04 05:47:56;;;;;;;4.32;2.53;;;10.70;99.90;;;;;;4972118;28;20615;-72
2022/12/04 05:50:23;;;;;;;5.63;2.65;;;10.70;99.90;;;;;;4970788;28;20418;-72
2022/12/04 05:52:51;;;;;;;7.57;2.65;;;10.70;99.90;;;;;;4971818;28;20167;-71
2022/12/04 05:55:18;;;;;;;4.78;2.17;;;10.60;99.90;;;;;;4968633;28;20093;-72
2022/12/04 05:57:46;;;;;;;6.03;3.15;;;10.60;99.90;;;;;;4970092;28;20054;-71
2022/12/04 06:00:14;;;;;;;5.03;2.15;;;10.60;99.90;;;;;;4968547;28;20069;-72
2022/12/04 06:02:41;;;;;;;10.35;2.90;;;10.60;99.90;;;;;;4969507;28;20436;-73
2022/12/04 06:05:09;;;;;;;6.50;3.05;;;10.70;99.90;;;;;;4952324;28;20042;-71
2022/12/04 06:07:36;;;;;;;11.98;2.35;;;10.70;99.90;;;;;;4969147;28;20055;-71
2022/12/04 06:10:05;;;;;;;5.47;2.03;;;10.70;99.90;;;;;;4971884;28;20098;-71
2022/12/04 06:12:33;;;;;;;5.15;2.30;;;10.60;99.90;;;;;;4970671;28;20079;-72
2022/12/04 06:15:00;;;;;;;3.33;1.63;;;10.70;99.90;;;;;;4970771;28;20073;-72
2022/12/04 06:17:28;;;;;;;5.53;3.65;;;10.70;99.90;;;;;;4971954;28;20226;-71
2022/12/04 06:19:55;;;;;;;5.15;2.00;;;10.80;99.90;;;;;;4972121;28;20089;-72
2022/12/04 06:22:23;;;;;;;4.00;1.67;;;10.70;99.90;;;;;;4980529;28;20148;-71
2022/12/04 06:24:51;;;;;;;5.65;2.05;;;10.70;99.90;;;;;;4970890;28;20079;-71
2022/12/04 06:27:18;;;;;;;6.35;2.10;;;10.70;99.90;;;;;;4970459;28;20074;-72
2022/12/04 06:29:54;;;;;;;4.88;2.35;;;10.70;99.90;;;;;;4970789;28;20723;-71
2022/12/04 06:32:21;;;;;;;4.25;2.17;;;10.70;99.90;;;;;;4971662;28;20050;-71
2022/12/04 06:34:51;;;;;;;2.70;1.45;;;10.60;99.90;;;;;;4954603;28;20051;-71
2022/12/04 06:37:20;;;;;;;4.78;2.40;;;10.60;99.90;;;;;;4986321;28;20066;-71
2022/12/04 06:39:48;;;;;;;8.57;2.38;;;10.70;99.90;;;;;;4971558;28;20064;-71
2022/12/04 06:42:16;;;;;;;4.97;1.95;;;10.60;99.90;;;;;;4962484;28;20062;-71
2022/12/04 06:44:43;;;;;;;6.88;2.05;;;10.60;99.90;;;;;;4970480;28;20483;-71
2022/12/04 06:47:11;;;;;;;4.28;2.22;;;10.60;99.90;;;;;;4971210;28;20151;-71
2022/12/04 06:49:38;;;;;;;6.43;2.00;;;10.70;99.90;;;;;;4969862;28;20050;-72
2022/12/04 06:52:06;;;;;;;5.70;2.63;;;10.70;99.90;;;;;;4971236;28;20063;-71
2022/12/04 06:54:33;;;;;;;6.68;1.92;;;10.70;99.90;;;;;;4969198;28;20039;-71
2022/12/04 06:57:01;;;;;;;6.85;2.90;;;10.70;99.90;;;;;;4953119;28;20165;-71
2022/12/04 06:59:28;;;;;;;3.15;1.75;;;10.70;99.90;;;;;;4970714;28;20105;-71
2022/12/04 07:01:56;;;;;;;3.95;1.60;;;10.70;99.90;;;;;;4970591;28;20130;-71
2022/12/04 07:04:23;;;;;;;4.15;1.88;;;10.70;99.90;;;;;;4953422;28;20051;-72
2022/12/04 07:06:51;;;;;;;5.57;2.25;;;10.70;99.90;;;;;;4954236;28;20584;-71
2022/12/04 07:09:18;;;;;;;6.13;2.47;;;10.70;99.90;;;;;;4969783;28;20580;-71
2022/12/04 07:11:46;;;;;;;6.15;3.25;;;10.70;99.90;;;;;;4970489;28;20526;-71
2022/12/04 07:14:14;;;;;;;3.38;1.75;;;10.70;99.90;;;;;;4970703;28;20232;-71
2022/12/04 07:16:41;;;;;;;4.15;1.80;;;10.60;99.90;;;;;;4968949;28;20074;-72
2022/12/04 07:19:11;;;;;;;7.78;2.22;;;10.60;99.90;;;;;;4968941;28;20109;-71
2022/12/04 07:21:41;;;;;;;4.60;2.25;;;10.60;99.90;;;;;;4953210;28;20062;-71
2022/12/04 07:24:15;;;;;;;4.07;2.15;;;10.60;99.90;;;;;;4951786;28;20142;-71
2022/12/04 07:26:42;;;;;;;3.90;2.20;;;10.60;99.90;;;;;;4951288;28;20239;-72
2022/12/04 07:29:10;;;;;;;4.55;2.20;;;10.60;99.90;;;;;;4966142;28;20106;-72
2022/12/04 07:31:37;;;;;;;7.95;2.85;;;10.60;99.90;;;;;;4957346;28;20500;-71
2022/12/04 07:34:06;;;;;;;8.38;2.95;;;10.60;99.90;;;;;;4970270;28;20397;-71
2022/12/04 07:36:33;;;;;;;8.48;3.50;;;10.50;99.90;;;;;;4969532;28;20102;-72
2022/12/04 07:39:01;;;;;;;13.75;5.30;;;10.50;99.90;;;;;;4969447;28;20046;-71
2022/12/04 07:41:28;;;;;;;10.93;4.63;;;10.50;99.90;;;;;;4969094;28;20051;-72
2022/12/04 07:43:56;;;;;;;9.38;4.47;;;10.60;99.90;;;;;;4970099;28;20513;-72
2022/12/04 07:46:26;;;;;;;10.57;4.28;;;10.60;99.90;;;;;;4970254;28;20496;-72
2022/12/04 07:48:58;;;;;;;14.32;4.70;;;10.60;99.90;;;;;;4968673;28;20061;-72
2022/12/04 07:51:27;;;;;;;10.60;3.97;;;10.60;99.90;;;;;;4968762;28;20133;-71
2022/12/04 07:53:57;;;;;;;10.30;4.18;;;10.60;99.90;;;;;;4968137;28;20105;-72
2022/12/04 07:56:27;;;;;;;8.65;3.22;;;10.60;99.90;;;;;;4968995;28;20142;-72
2022/12/04 07:58:54;;;;;;;18.27;5.85;;;10.60;99.90;;;;;;4952489;28;20053;-72
2022/12/04 08:01:23;;;;;;;16.90;5.80;;;10.50;99.90;;;;;;4969435;28;20062;-72
2022/12/04 08:03:55;;;;;;;14.90;4.50;;;10.50;99.90;;;;;;4969839;28;20042;-73
2022/12/04 08:06:24;;;;;;;13.45;5.22;;;10.60;99.90;;;;;;4969576;28;20031;-71
2022/12/04 08:08:52;;;;;;;15.18;4.65;;;10.50;99.90;;;;;;4986165;28;20043;-72
2022/12/04 08:11:22;;;;;;;8.38;4.97;;;10.50;99.90;;;;;;4973742;28;20503;-72
2022/12/04 08:14:02;;;;;;;11.38;5.20;;;10.50;99.90;;;;;;4974095;28;20050;-71
2022/12/04 08:16:32;;;;;;;8.55;5.32;;;10.40;99.90;;;;;;4972976;28;20370;-72
2022/12/04 08:19:00;;;;;;;10.18;4.97;;;10.40;99.90;;;;;;4972306;28;20575;-74
2022/12/04 08:21:29;;;;;;;17.05;6.45;;;10.50;99.90;;;;;;4988592;28;20045;-71
2022/12/04 08:23:58;;;;;;;9.85;4.50;;;10.50;99.90;;;;;;4988172;28;20039;-71
2022/12/04 08:26:29;;;;;;;12.88;5.10;;;10.40;99.90;;;;;;4956735;28;20101;-73
2022/12/04 08:28:57;;;;;;;8.65;3.75;;;10.40;99.90;;;;;;4956722;28;20058;-72
2022/12/04 08:31:27;;;;;;;11.43;4.55;;;10.50;99.90;;;;;;4973574;28;20117;-72
2022/12/04 08:33:57;;;;;;;10.95;4.22;;;10.50;99.90;;;;;;4972304;28;20050;-72
2022/12/04 08:36:25;;;;;;;8.32;3.80;;;10.50;99.90;;;;;;4972409;28;20046;-74
2022/12/04 08:38:53;;;;;;;7.25;3.63;;;10.60;99.90;;;;;;4973623;28;20109;-74
2022/12/04 08:41:22;;;;;;;10.02;4.70;;;10.60;99.90;;;;;;4973088;28;20050;-72
2022/12/04 08:43:53;;;;;;;4.57;3.08;;;10.60;99.90;;;;;;4973530;28;20146;-73
2022/12/04 08:46:22;;;;;;;9.48;3.60;;;10.60;99.90;;;;;;4971903;28;20106;-72
2022/12/04 08:48:50;;;;;;;7.65;3.28;;;10.70;99.90;;;;;;4972089;28;20065;-72
2022/12/04 08:51:20;;;;;;;6.35;3.35;;;10.60;99.90;;;;;;4972686;28;20114;-73
2022/12/04 08:53:51;;;;;;;12.48;2.90;;;10.70;99.90;;;;;;4956075;28;20138;-73
2022/12/04 08:56:18;;;;;;;8.70;3.22;;;10.70;99.90;;;;;;4972131;28;20050;-71
2022/12/04 08:58:46;;;;;;;6.90;2.95;;;10.80;99.90;;;;;;4955959;28;20043;-70
2022/12/04 09:01:14;;;;;;;5.43;3.00;;;10.80;99.90;;;;;;4972398;28;20137;-71
2022/12/04 09:03:42;;;;;;;10.32;4.07;;;10.90;99.90;;;;;;4955392;28;20142;-70
2022/12/04 09:06:12;;;;;;;7.15;3.67;;;10.90;99.90;;;;;;4971511;28;20051;-70
2022/12/04 09:08:40;;;;;;;8.77;5.40;;;10.90;99.90;;;;;;4971590;28;20055;-71
2022/12/04 09:11:17;;;;;;;5.72;2.95;;;11.00;99.90;;;;;;4971254;28;20680;-71
2022/12/04 09:13:45;;;;;;;4.95;2.22;;;11.00;99.90;;;;;;4955446;28;20128;-71
2022/12/04 09:16:20;;;;;;;7.07;3.67;;;11.00;99.90;;;;;;4971526;28;20442;-71
2022/12/04 09:18:48;;;;;;;12.25;3.53;;;11.00;99.90;;;;;;4972350;28;20513;-71
2022/12/04 09:21:18;;;;;;;8.45;4.13;;;11.10;99.90;;;;;;4970612;28;20045;-71
2022/12/04 09:23:46;;;;;;;8.80;3.60;;;11.10;99.90;;;;;;4972643;28;20051;-71
2022/12/04 09:26:27;;;;;;;8.32;2.63;;;11.20;99.90;;;;;;4971234;28;20046;-72
2022/12/04 09:28:57;;;;;;;8.43;3.33;;;11.20;99.90;;;;;;4972580;28;20050;-72
2022/12/04 09:31:25;;;;;;;11.25;4.95;;;11.30;99.90;;;;;;4971379;28;20493;-74
2022/12/04 09:33:52;;;;;;;11.00;4.20;;;11.40;99.90;;;;;;4970413;28;20061;-73
2022/12/04 09:36:21;;;;;;;10.32;4.22;;;11.40;99.90;;;;;;4971049;28;20531;-71
2022/12/04 09:38:50;;;;;;;11.77;3.63;;;11.50;99.90;;;;;;4971447;28;20046;-72
2022/12/04 09:41:22;;;;;;;12.15;5.72;;;11.60;99.90;;;;;;4939058;28;20089;-72
2022/12/04 09:44:02;;;;;;;21.50;3.72;;;11.60;99.90;;;;;;4971195;28;20065;-72
2022/12/04 09:46:50;;;;;;;7.13;3.45;;;11.70;99.90;;;;;;4972395;28;20048;-72
2022/12/04 09:49:27;;;;;;;9.98;3.17;;;11.70;99.90;;;;;;4971268;28;20473;-72
2022/12/04 09:51:59;;;;;;;14.60;3.90;;;11.80;99.90;;;;;;4954747;28;20390;-73
2022/12/04 09:54:32;;;;;;;10.30;3.17;;;11.90;99.90;;;;;;4954668;28;20819;-72
2022/12/04 09:57:07;;;;;;;7.13;3.78;;;12.00;99.90;;;;;;4971694;28;20050;-72
2022/12/04 09:59:36;;;;;;;14.32;3.00;;;12.20;99.90;;;;;;4954086;28;20520;-71
2022/12/04 10:02:28;;;;;;;10.35;3.70;;;12.30;99.90;;;;;;4954731;28;20070;-72
2022/12/04 10:04:56;;;;;;;4.82;2.72;;;12.70;99.90;;;;;;4954495;28;20097;-71
2022/12/04 10:07:33;;;;;;;17.40;4.90;;;12.70;99.90;;;;;;4954082;28;20074;-71
2022/12/04 10:10:03;;;;;;;;;;;12.80;99.90;;;;;;4970500;28;20078;-72
2022/12/04 10:12:31;;;;;;;14.63;4.53;;;13.00;99.90;;;;;;4961546;28;19936;-71
2022/12/04 10:15:19;;;;;;;14.55;4.30;;;13.00;99.90;;;;;;4969984;28;20047;-71
2022/12/04 10:18:06;;;;;;;8.07;4.50;;;12.90;99.90;;;;;;4971491;28;20122;-72
2022/12/04 10:20:49;;;;;;;8.98;4.00;;;13.00;99.90;;;;;;4954409;28;20071;-71
2022/12/04 10:23:29;;;;;;;7.22;3.97;;;13.20;99.90;;;;;;4969781;28;20051;-72
2022/12/04 10:25:58;;;;;;;11.07;3.20;;;13.50;99.90;;;;;;4970156;28;20540;-70
2022/12/04 10:28:40;;;;;;;8.35;2.88;;;13.70;99.90;;;;;;4971410;28;20406;-72
2022/12/04 10:31:13;;;;;;;18.88;4.68;;;13.80;99.90;;;;;;4970203;28;20385;-71
2022/12/04 10:33:57;;;;;;;16.15;3.45;;;13.90;99.90;;;;;;4951909;28;20355;-70
2022/12/04 10:36:31;;;;;;;5.78;3.20;;;14.00;99.90;;;;;;4950700;28;20058;-71
2022/12/04 10:39:45;;;;;;;6.22;3.15;;;14.00;99.90;;;;;;4955549;28;20522;-71
2022/12/04 10:42:25;;;;;;;9.35;3.17;;;14.10;99.90;;;;;;4967964;28;20055;-71
2022/12/04 10:44:53;;;;;;;7.47;2.75;;;14.20;99.90;;;;;;4953986;28;20062;-71
2022/12/04 10:47:23;;;;;;;10.15;3.35;;;14.20;99.90;;;;;;4970344;28;20121;-71
2022/12/04 10:49:59;;;;;;;6.43;2.67;;;14.20;99.90;;;;;;4969160;28;20505;-71
2022/12/04 10:52:27;;;;;;;11.70;2.45;;;14.10;99.90;;;;;;4985370;28;20063;-72
2022/12/04 10:54:59;;;;;;;8.25;3.35;;;14.00;99.90;;;;;;4953453;28;20051;-72
2022/12/04 10:57:39;;;;;;;9.98;3.38;;;14.00;99.90;;;;;;4971095;28;20121;-72
2022/12/04 11:01:01;;;;;;;8.38;2.78;;;14.00;99.90;;;;;;4970677;28;20051;-71
2022/12/04 11:03:29;;;;;;;6.82;3.42;;;14.10;99.90;;;;;;4910387;29;20059;-72
2022/12/04 11:06:05;;;;;;;6.78;2.65;;;13.90;99.90;;;;;;4894362;29;20190;-71
2022/12/04 11:08:47;;;;;;;5.80;2.60;;;13.90;99.90;;;;;;4946323;28;20066;-72
2022/12/04 11:11:26;;;;;;;7.28;3.60;;;14.10;99.90;;;;;;4948912;29;20066;-72
2022/12/04 11:14:14;;;;;;;9.02;3.30;;;14.10;99.90;;;;;;4933389;28;20106;-72
2022/12/04 11:16:45;;;;;;;7.00;2.85;;;14.30;99.90;;;;;;4949846;28;20501;-71
2022/12/04 11:19:35;;;;;;;4.18;2.63;;;14.40;99.90;;;;;;4951022;28;20125;-71
2022/12/04 11:22:10;;;;;;;10.50;3.20;;;14.30;99.90;;;;;;4956798;28;20050;-72
2022/12/04 11:24:41;;;;;;;8.93;3.00;;;14.20;99.90;;;;;;4968894;28;20050;-72
2022/12/04 11:27:20;;;;;;;10.88;3.40;;;14.40;99.90;;;;;;4970003;28;20558;-71
2022/12/04 11:29:49;;;;;;;10.60;4.30;;;14.50;99.90;;;;;;4967967;28;20691;-72
2022/12/04 11:32:24;;;;;;;6.03;3.33;;;14.60;99.90;;;;;;4972544;28;20078;-72
2022/12/04 11:34:54;;;;;;;9.90;4.65;;;14.70;99.90;;;;;;4968823;28;20062;-76
2022/12/04 11:37:27;;;;;;;5.72;2.60;;;14.60;99.90;;;;;;4952690;28;20097;-72
2022/12/04 11:39:55;;;;;;;4.03;2.55;;;14.30;99.90;;;;;;4968715;28;20050;-71
2022/12/04 11:42:26;;;;;;;6.20;2.45;;;14.10;99.90;;;;;;4968389;28;20109;-72
2022/12/04 11:44:55;;;;;;;7.95;3.65;;;14.00;99.90;;;;;;4968891;28;20104;-71
2022/12/04 11:47:26;;;;;;;7.18;3.13;;;14.10;99.90;;;;;;4968084;28;20050;-71
2022/12/04 11:50:00;;;;;;;6.28;4.00;;;14.00;99.90;;;;;;4969978;28;20047;-72
2022/12/04 11:52:30;;;;;;;9.23;3.80;;;14.10;99.90;;;;;;4969418;28;20046;-71
2022/12/04 11:55:20;;;;;;;12.05;3.95;;;14.10;99.90;;;;;;4952094;28;20073;-71
2022/12/04 11:58:23;;;;;;;9.70;4.20;;;14.20;99.90;;;;;;4968677;28;20069;-72
2022/12/04 12:01:10;;;;;;;10.02;3.70;;;14.20;99.90;;;;;;4969273;28;20062;-71
2022/12/04 12:03:55;;;;;;;6.72;2.67;;;14.30;99.90;;;;;;4968700;28;20690;-71
2022/12/04 12:06:23;;;;;;;5.38;3.08;;;14.30;99.90;;;;;;4969773;28;20039;-72
2022/12/04 12:09:08;;;;;;;6.38;3.25;;;14.30;99.90;;;;;;4969985;28;20490;-71
2022/12/04 12:12:24;;;;;;;6.23;2.43;;;14.40;99.90;;;;;;4952397;28;20046;-71
2022/12/04 12:15:13;;;;;;;8.60;3.00;;;14.50;99.90;;;;;;4894330;29;20059;-71
2022/12/04 12:17:54;;;;;;;6.32;2.28;;;14.30;99.90;;;;;;4893571;29;20052;-70
2022/12/04 12:20:49;;;;;;;7.00;3.13;;;14.40;99.90;;;;;;4957431;28;20482;-72
2022/12/04 12:23:20;;;;;;;5.88;2.60;;;14.50;99.90;;;;;;4969304;28;20149;-72
2022/12/04 12:26:09;;;;;;;4.00;2.20;;;14.60;99.90;;;;;;4968409;28;20042;-71
2022/12/04 12:29:04;;;;;;;10.35;1.85;;;14.60;99.90;;;;;;4969690;28;20121;-72
2022/12/04 12:31:53;;;;;;;5.82;1.95;;;14.60;99.90;;;;;;4951872;28;20046;-72
2022/12/04 12:34:38;;;;;;;3.45;1.55;;;14.60;99.90;;;;;;4967734;28;20515;-72
2022/12/04 12:37:15;;;;;;;6.35;2.35;;;14.60;99.90;;;;;;4968083;28;20050;-72
2022/12/04 12:39:56;;;;;;;6.40;2.85;;;14.60;99.90;;;;;;4967918;28;20047;-72
2022/12/04 12:42:49;;;;;;;4.38;2.30;;;14.60;99.90;;;;;;4969096;28;20045;-72
2022/12/04 12:45:20;;;;;;;10.30;2.83;;;14.70;99.90;;;;;;4967997;28;20063;-72
2022/12/04 12:47:51;;;;;;;7.03;2.80;;;14.70;99.90;;;;;;4967736;28;20117;-72
2022/12/04 12:50:30;;;;;;;6.75;2.85;;;14.70;99.90;;;;;;4967988;28;20150;-71
2022/12/04 12:53:04;;;;;;;5.50;2.75;;;14.70;99.90;;;;;;4967876;28;20100;-71
2022/12/04 12:55:37;;;;;;;5.35;2.88;;;14.90;99.90;;;;;;4969738;28;20093;-72
2022/12/04 12:58:18;;;;;;;6.13;2.65;;;14.90;99.90;;;;;;4973028;28;20066;-71
2022/12/04 13:01:03;;;;;;;10.95;2.35;;;14.90;99.90;;;;;;4972727;28;20125;-71
2022/12/04 13:04:00;;;;;;;10.90;2.80;;;14.80;99.90;;;;;;4972774;28;20051;-71
2022/12/04 13:06:36;;;;;;;6.80;2.67;;;14.80;99.90;;;;;;4971265;28;20110;-73
2022/12/04 13:09:30;;;;;;;6.97;2.53;;;14.80;99.90;;;;;;4972491;28;20038;-72
2022/12/04 13:12:07;;;;;;;4.68;2.15;;;14.70;99.90;;;;;;4986842;28;20476;-71
2022/12/04 13:14:35;;;;;;;6.60;2.65;;;14.70;99.90;;;;;;4970668;28;20095;-74
2022/12/04 13:17:28;;;;;;;6.28;2.80;;;14.60;99.90;;;;;;4986549;28;20046;-71
2022/12/04 13:19:57;;;;;;;6.82;2.95;;;14.50;99.90;;;;;;4962400;28;20047;-72
2022/12/04 13:22:37;;;;;;;9.02;3.22;;;14.60;99.90;;;;;;4971154;28;20469;-72
2022/12/04 13:25:15;;;;;;;9.85;2.88;;;14.70;99.90;;;;;;4972215;28;20049;-71
2022/12/04 13:28:06;;;;;;;9.23;2.50;;;14.60;99.90;;;;;;4955011;28;20062;-71
2022/12/04 13:30:46;;;;;;;6.53;2.17;;;14.60;99.90;;;;;;4972505;28;20047;-71
2022/12/04 13:33:42;;;;;;;12.27;6.15;;;14.60;99.90;;;;;;4970568;28;20042;-72
2022/12/04 13:36:26;;;;;;;5.90;3.13;;;14.50;99.90;;;;;;4970585;28;20397;-71